Time;durP1;ratioP1;P1;durP2;ratioP2;P2;SDS_P1;SDS_P2;PMS_P1;PMS_P2;Temp;Humidity;BMP_temperature;BMP_pressure;BME280_temperature;BME280_humidity;BME280_pressure;Samples;Min_cycle;Max_cycle;Signal;HPM_P1;HPM_P2
2023/02/14 00:01:44;;;;;;;43.57;24.03;;;;;;;-0.38;100.00;98485.25;5097867;28;20968;-63
2023/02/14 00:04:10;;;;;;;41.23;22.57;;;;;;;-0.37;100.00;98481.75;5115889;28;20259;-63
2023/02/14 00:06:37;;;;;;;41.10;23.93;;;;;;;-0.38;100.00;98474.94;5096039;28;20262;-63
2023/02/14 00:09:07;;;;;;;42.40;25.10;;;;;;;-0.37;100.00;98475.78;5115738;28;20199;-63
2023/02/14 00:11:32;;;;;;;42.20;23.50;;;;;;;-0.37;100.00;98471.44;5114328;28;20192;-62
2023/02/14 00:16:43;;;;;;;48.33;24.90;;;;;;;-0.41;100.00;98477.78;5114047;28;20219;-62
2023/02/14 00:19:11;;;;;;;45.97;24.93;;;;;;;-0.42;100.00;98478.69;5114344;28;20632;-63
2023/02/14 00:21:37;;;;;;;44.10;25.27;;;;;;;-0.49;100.00;98473.19;5104489;28;20695;-63
2023/02/14 00:24:09;;;;;;;42.80;24.97;;;;;;;-0.53;100.00;98474.38;5093833;28;20263;-63
2023/02/14 00:26:37;;;;;;;47.53;26.50;;;;;;;-0.53;100.00;98479.53;5106499;28;20373;-63
2023/02/14 00:29:07;;;;;;;42.60;25.33;;;;;;;-0.53;100.00;98482.09;5114771;28;20255;-61
2023/02/14 00:31:33;;;;;;;44.07;25.40;;;;;;;-0.48;100.00;98485.13;5059606;28;20286;-62
2023/02/14 00:33:59;;;;;;;48.50;26.97;;;;;;;-0.50;100.00;98483.59;5072846;28;20217;-61
2023/02/14 00:36:25;;;;;;;41.17;24.50;;;;;;;-0.59;100.00;98487.69;5054879;28;20277;-62
2023/02/14 00:38:52;;;;;;;43.33;22.97;;;;;;;-0.47;100.00;98489.34;5069210;28;20189;-62
2023/02/14 00:41:18;;;;;;;44.30;26.37;;;;;;;-0.46;100.00;98477.31;5073039;28;20625;-61
2023/02/14 00:43:48;;;;;;;46.07;25.77;;;;;;;-0.43;100.00;98479.63;5072967;28;20185;-62
2023/02/14 00:46:14;;;;;;;47.10;26.20;;;;;;;-0.46;100.00;98485.03;5073130;28;20219;-62
2023/02/14 00:48:40;;;;;;;42.47;25.20;;;;;;;-0.43;100.00;98489.94;5072963;28;20186;-62
2023/02/14 00:51:06;;;;;;;42.50;24.83;;;;;;;-0.46;100.00;98479.88;5072705;28;20289;-62
2023/02/14 00:53:32;;;;;;;49.90;26.57;;;;;;;-0.57;100.00;98478.13;5072662;28;20246;-62
2023/02/14 00:55:57;;;;;;;44.67;25.40;;;;;;;-0.53;100.00;98476.94;5072310;28;20242;-63
2023/02/14 00:58:23;;;;;;;49.63;26.13;;;;;;;-0.55;100.00;98478.81;5073111;28;20186;-62
2023/02/14 01:00:48;;;;;;;45.43;25.10;;;;;;;-0.49;100.00;98474.94;5072796;28;20535;-63
2023/02/14 01:03:14;;;;;;;50.23;25.87;;;;;;;-0.51;100.00;98489.72;5054617;28;20402;-62
2023/02/14 01:05:40;;;;;;;47.83;26.23;;;;;;;-0.55;100.00;98478.81;5072781;28;20209;-62
2023/02/14 01:08:06;;;;;;;47.00;25.77;;;;;;;-0.48;100.00;98481.75;5054559;28;20183;-62
2023/02/14 01:10:32;;;;;;;46.37;26.07;;;;;;;-0.49;100.00;98486.06;5072461;28;20617;-62
2023/02/14 01:12:57;;;;;;;47.80;25.80;;;;;;;-0.45;100.00;98481.53;5072699;28;20182;-63
2023/02/14 01:15:23;;;;;;;46.70;24.83;;;;;;;-0.47;100.00;98489.34;5054549;28;20205;-62
2023/02/14 01:17:48;;;;;;;46.53;25.37;;;;;;;-0.48;100.00;98492.03;5072555;28;20217;-62
2023/02/14 01:20:14;;;;;;;51.37;25.67;;;;;;;-0.50;100.00;98486.19;5072355;28;20193;-62
2023/02/14 01:22:39;;;;;;;52.83;25.13;;;;;;;-0.49;100.00;98487.81;5066653;28;20200;-62
2023/02/14 01:25:05;;;;;;;52.07;25.63;;;;;;;-0.55;100.00;98483.13;5072155;28;20215;-62
2023/02/14 01:27:31;;;;;;;44.70;25.37;;;;;;;-0.53;100.00;98484.66;5072197;28;20187;-63
2023/02/14 01:29:57;;;;;;;47.40;25.87;;;;;;;-0.60;100.00;98472.34;5074986;28;20243;-62
2023/02/14 01:32:22;;;;;;;46.67;25.60;;;;;;;-0.64;100.00;98473.53;5084992;28;20180;-63
2023/02/14 01:34:49;;;;;;;45.60;24.87;;;;;;;-0.63;100.00;98472.59;5113378;28;20273;-63
2023/02/14 01:37:14;;;;;;;51.67;26.07;;;;;;;-0.63;100.00;98472.59;5112827;28;20187;-63
2023/02/14 01:39:42;;;;;;;47.77;26.43;;;;;;;-0.55;100.00;98468.50;5102051;28;20180;-63
2023/02/14 01:42:09;;;;;;;49.40;25.80;;;;;;;-0.58;100.00;98466.16;5108911;28;20172;-63
2023/02/14 01:44:58;;;;;;;52.87;27.33;;;;;;;-0.62;100.00;98467.34;5113476;28;20183;-62
2023/02/14 01:47:27;;;;;;;47.67;26.37;;;;;;;-0.64;100.00;98469.22;5571462;22;20241;-62
2023/02/14 01:49:59;;;;;;;50.97;26.20;;;;;;;-0.68;100.00;98470.38;5057047;28;20208;-62
2023/02/14 01:52:38;;;;;;;52.37;26.73;;;;;;;-0.64;100.00;98470.97;5057180;28;20178;-63
2023/02/14 01:55:08;;;;;;;52.23;25.40;;;;;;;-0.62;100.00;98466.53;5057056;28;20241;-63
2023/02/14 01:57:48;;;;;;;50.37;26.07;;;;;;;-0.78;100.00;98466.81;5056167;28;20216;-63
2023/02/14 02:03:01;;;;;;;49.27;24.60;;;;;;;-0.70;100.00;98464.50;5056296;28;20236;-63
2023/02/14 02:05:26;;;;;;;51.80;26.47;;;;;;;-0.71;100.00;98462.03;5055790;28;20585;-63
2023/02/14 02:07:56;;;;;;;50.40;26.87;;;;;;;-0.68;100.00;98472.13;5055952;28;20184;-62
2023/02/14 02:10:21;;;;;;;53.47;26.60;;;;;;;-0.70;100.00;98474.81;5055833;28;20248;-64
2023/02/14 02:12:49;;;;;;;56.77;27.67;;;;;;;-0.74;100.00;98473.41;5055813;28;20181;-62
2023/02/14 02:15:14;;;;;;;52.57;26.83;;;;;;;-0.74;100.00;98472.59;5055933;28;20727;-62
2023/02/14 02:17:42;;;;;;;59.37;26.93;;;;;;;-0.75;100.00;98476.09;5055522;28;20194;-62
2023/02/14 02:20:33;;;;;;;53.10;27.67;;;;;;;-0.81;100.00;98466.25;5055360;28;20178;-62
2023/02/14 02:23:01;;;;;;;56.73;28.53;;;;;;;-0.75;100.00;98460.63;5040243;28;20257;-62
2023/02/14 02:26:00;;;;;;;54.03;26.73;;;;;;;-0.74;100.00;98467.44;5054420;28;20212;-63
2023/02/14 02:29:03;;;;;;;50.53;26.20;;;;;;;-0.74;100.00;98459.72;5055273;28;20642;-62
2023/02/14 02:32:00;;;;;;;56.97;27.50;;;;;;;-0.72;100.00;98468.94;5055466;28;20215;-61
2023/02/14 02:34:56;;;;;;;59.23;27.07;;;;;;;-0.75;100.00;98465.78;5054738;28;20669;-62
2023/02/14 02:37:52;;;;;;;57.50;26.40;;;;;;;-0.77;100.00;98455.59;5040891;28;20240;-62
2023/02/14 02:40:34;;;;;;;59.80;28.20;;;;;;;-0.78;100.00;98460.88;5053433;28;20646;-63
2023/02/14 02:43:10;;;;;;;59.77;28.03;;;;;;;-0.76;100.00;98469.28;5055146;28;20665;-62
2023/02/14 02:48:47;;;;;;;58.53;27.67;;;;;;;-0.91;100.00;98466.13;5100912;28;20320;-62
2023/02/14 02:54:22;;;;;;;59.00;28.97;;;;;;;-0.92;100.00;98462.72;5096087;28;20184;-62
2023/02/14 02:56:56;;;;;;;59.73;28.13;;;;;;;-0.90;100.00;98468.59;5111548;28;20280;-62
2023/02/14 02:59:32;;;;;;;58.90;27.53;;;;;;;-0.91;100.00;98466.94;5111453;28;20173;-62
2023/02/14 03:02:06;;;;;;;62.13;28.67;;;;;;;-0.95;100.00;98459.56;5113921;28;20197;-62
2023/02/14 03:04:54;;;;;;;60.13;28.70;;;;;;;-0.92;100.00;98456.75;5100114;28;20177;-61
2023/02/14 03:07:34;;;;;;;56.37;28.63;;;;;;;-0.92;100.00;98454.19;5111889;28;20184;-62
2023/02/14 03:10:01;;;;;;;63.17;30.77;;;;;;;-0.92;100.00;98451.59;5110629;28;20272;-61
2023/02/14 03:13:10;;;;;;;60.70;30.13;;;;;;;-0.87;100.00;98457.22;5104342;28;20192;-62
2023/02/14 03:15:51;;;;;;;58.73;28.33;;;;;;;-0.94;100.00;98459.44;5108616;28;20208;-62
2023/02/14 03:18:32;;;;;;;62.10;28.13;;;;;;;-0.88;100.00;98466.69;5111058;28;20208;-62
2023/02/14 03:21:14;;;;;;;64.20;29.40;;;;;;;-0.92;100.00;98464.47;5113123;28;20270;-64
2023/02/14 03:23:45;;;;;;;62.47;29.30;;;;;;;-0.89;100.00;98469.38;5107611;28;20191;-63
2023/02/14 03:26:15;;;;;;;70.17;32.30;;;;;;;-0.94;100.00;98463.75;5107227;28;20220;-63
2023/02/14 03:28:44;;;;;;;61.17;27.83;;;;;;;-0.95;100.00;98462.94;5112660;28;20530;-63
2023/02/14 03:31:45;;;;;;;61.90;29.60;;;;;;;-0.93;100.00;98466.22;5111303;28;20196;-63
2023/02/14 03:34:33;;;;;;;66.80;30.37;;;;;;;-0.97;100.00;98469.13;5096795;28;20189;-63
2023/02/14 03:37:12;;;;;;;62.67;27.93;;;;;;;-0.99;100.00;98469.25;5111771;28;20191;-63
2023/02/14 03:40:10;;;;;;;66.77;30.67;;;;;;;-0.97;100.00;98462.25;5092056;28;20267;-63
2023/02/14 03:42:43;;;;;;;61.77;29.07;;;;;;;-0.99;100.00;98460.69;5109778;28;20198;-63
2023/02/14 03:45:14;;;;;;;62.07;29.87;;;;;;;-0.96;100.00;98463.88;5111622;28;20200;-63
2023/02/14 03:47:42;;;;;;;66.43;30.57;;;;;;;-0.91;100.00;98466.13;5119123;27;20216;-63
2023/02/14 03:50:19;;;;;;;68.40;31.10;;;;;;;-0.92;100.00;98460.13;5125001;27;20206;-63
2023/02/14 03:52:48;;;;;;;61.20;28.67;;;;;;;-0.97;100.00;98462.25;5125996;27;20167;-63
2023/02/14 03:55:17;;;;;;;65.13;30.20;;;;;;;-0.95;100.00;98455.22;5124362;27;20199;-63
2023/02/14 03:57:48;;;;;;;71.50;29.70;;;;;;;-0.92;100.00;98447.28;5126264;27;20184;-63
2023/02/14 04:00:17;;;;;;;59.13;29.33;;;;;;;-0.89;100.00;98451.34;5124914;27;20175;-63
2023/02/14 04:02:46;;;;;;;61.60;30.23;;;;;;;-0.92;100.00;98449.84;5132251;27;20184;-63
2023/02/14 04:05:20;;;;;;;65.97;30.93;;;;;;;-0.92;100.00;98455.00;5125267;27;20198;-63
2023/02/14 04:07:51;;;;;;;68.60;30.60;;;;;;;-1.02;100.00;98450.66;5133452;27;20199;-63
2023/02/14 04:10:18;;;;;;;58.97;29.03;;;;;;;-0.98;100.00;98446.91;5134704;27;20195;-63
2023/02/14 04:12:43;;;;;;;61.30;29.47;;;;;;;-0.94;100.00;98453.44;5121292;27;20233;-63
2023/02/14 04:15:10;;;;;;;57.30;28.53;;;;;;;-0.97;100.00;98445.97;5131548;27;20210;-63
2023/02/14 04:20:19;;;;;;;63.67;29.90;;;;;;;-0.97;100.00;98449.38;5120044;27;20256;-63
2023/02/14 04:22:45;;;;;;;67.97;30.40;;;;;;;-1.02;100.00;98448.06;5134471;27;20187;-63
2023/02/14 04:25:29;;;;;;;59.07;29.50;;;;;;;-1.07;100.00;98442.44;5134812;27;20201;-63
2023/02/14 04:27:54;;;;;;;65.87;30.03;;;;;;;-1.06;100.00;98446.66;5134872;27;20179;-63
2023/02/14 04:30:21;;;;;;;63.07;29.03;;;;;;;-0.99;100.00;98447.84;5120367;27;20218;-63
2023/02/14 04:32:47;;;;;;;59.50;28.50;;;;;;;-1.01;100.00;98447.16;5113415;27;20191;-63
2023/02/14 04:35:13;;;;;;;66.13;29.27;;;;;;;-1.03;100.00;98444.69;5134262;27;20203;-63
2023/02/14 04:37:38;;;;;;;64.43;28.93;;;;;;;-1.04;100.00;98444.78;5132619;27;20235;-63
2023/02/14 04:40:04;;;;;;;59.57;29.93;;;;;;;-0.98;100.00;98440.00;5122668;27;20183;-63
2023/02/14 04:42:30;;;;;;;62.30;29.70;;;;;;;-0.95;100.00;98438.97;5113973;27;20180;-63
2023/02/14 04:44:55;;;;;;;67.00;29.67;;;;;;;-0.95;100.00;98433.81;5115515;27;20207;-62
2023/02/14 04:47:21;;;;;;;59.93;30.43;;;;;;;-1.04;100.00;98442.22;5122884;27;20268;-61
2023/02/14 04:49:46;;;;;;;61.10;30.67;;;;;;;-0.99;100.00;98435.78;5088332;28;20212;-62
2023/02/14 04:52:12;;;;;;;64.10;29.37;;;;;;;-1.04;100.00;98444.78;5116455;28;20180;-62
2023/02/14 04:54:37;;;;;;;58.30;28.93;;;;;;;-1.10;100.00;98448.63;5096145;28;20177;-63
2023/02/14 04:57:03;;;;;;;67.80;30.43;;;;;;;-1.15;100.00;98443.00;5110224;28;20226;-63
2023/02/14 04:59:29;;;;;;;60.67;29.30;;;;;;;-1.10;100.00;98440.09;5093910;28;20176;-63
2023/02/14 05:01:54;;;;;;;59.20;30.20;;;;;;;-1.11;100.00;98439.25;5093144;28;20604;-63
2023/02/14 05:04:20;;;;;;;63.47;30.80;;;;;;;-1.00;100.00;98433.31;5112038;28;20272;-60
2023/02/14 05:06:46;;;;;;;67.50;30.40;;;;;;;-1.00;100.00;98434.16;5093085;28;20258;-63
2023/02/14 05:09:11;;;;;;;65.07;29.53;;;;;;;-0.99;100.00;98440.94;5081635;28;20257;-63
2023/02/14 05:11:37;;;;;;;59.30;29.27;;;;;;;-0.98;100.00;98441.75;5093078;28;20183;-63
2023/02/14 05:14:02;;;;;;;57.97;30.30;;;;;;;-1.08;100.00;98439.06;5109264;28;20183;-62
2023/02/14 05:16:28;;;;;;;61.50;29.77;;;;;;;-1.01;100.00;98436.84;5093779;28;20280;-63
2023/02/14 05:18:53;;;;;;;59.50;28.73;;;;;;;-1.08;100.00;98440.81;5077198;28;20291;-62
2023/02/14 05:21:18;;;;;;;57.80;28.83;;;;;;;-1.15;100.00;98437.03;5080186;28;20180;-62
2023/02/14 05:23:44;;;;;;;55.93;28.87;;;;;;;-1.22;100.00;98440.97;5093000;28;20195;-62
2023/02/14 05:26:09;;;;;;;55.67;28.13;;;;;;;-1.21;100.00;98445.19;5096789;28;20286;-62
2023/02/14 05:28:35;;;;;;;70.10;29.27;;;;;;;-1.22;100.00;98443.56;5105027;28;20271;-62
2023/02/14 05:31:00;;;;;;;59.87;28.43;;;;;;;-1.20;100.00;98434.81;5107293;28;20204;-60
2023/02/14 05:33:26;;;;;;;55.77;28.07;;;;;;;-1.18;100.00;98434.69;5112821;28;20183;-63
2023/02/14 05:35:52;;;;;;;61.67;28.53;;;;;;;-1.23;100.00;98431.66;5112326;28;20629;-63
2023/02/14 05:38:18;;;;;;;59.60;29.27;;;;;;;-1.25;100.00;98434.31;5112516;28;20282;-62
2023/02/14 05:40:43;;;;;;;64.53;29.70;;;;;;;-1.18;100.00;98432.13;5112390;28;20682;-62
2023/02/14 05:43:09;;;;;;;60.47;27.40;;;;;;;-1.28;100.00;98434.53;5090914;28;20566;-61
2023/02/14 05:45:42;;;;;;;59.13;28.80;;;;;;;-1.30;100.00;98434.66;5107580;28;20687;-61
2023/02/14 05:48:09;;;;;;;59.20;28.80;;;;;;;-1.31;100.00;98435.59;5088416;28;20270;-63
2023/02/14 05:50:34;;;;;;;58.90;27.67;;;;;;;-1.28;100.00;98445.63;5087474;28;20213;-63
2023/02/14 05:53:00;;;;;;;60.27;29.47;;;;;;;-1.29;100.00;98445.78;5092713;28;20199;-63
2023/02/14 05:55:25;;;;;;;56.20;27.87;;;;;;;-1.38;100.00;98443.84;5079752;28;20262;-63
2023/02/14 05:57:51;;;;;;;60.77;29.83;;;;;;;-1.36;100.00;98442.00;5072480;28;20620;-63
2023/02/14 06:00:17;;;;;;;67.17;29.43;;;;;;;-1.29;100.00;98449.16;5091488;28;20188;-64
2023/02/14 06:02:42;;;;;;;58.80;30.37;;;;;;;-1.33;100.00;98446.91;5080827;28;20513;-63
2023/02/14 06:05:08;;;;;;;62.87;30.67;;;;;;;-1.36;100.00;98447.97;5071279;28;20266;-64
2023/02/14 06:07:33;;;;;;;62.33;28.17;;;;;;;-1.40;100.00;98449.13;5091751;28;20184;-64
2023/02/14 06:09:59;;;;;;;61.10;30.50;;;;;;;-1.35;100.00;98449.63;5092209;28;20208;-63
2023/02/14 06:12:24;;;;;;;56.47;28.67;;;;;;;-1.32;100.00;98453.69;5092184;28;20250;-63
2023/02/14 06:14:49;;;;;;;61.77;29.73;;;;;;;-1.29;100.00;98453.50;5092078;28;20590;-63
2023/02/14 06:17:15;;;;;;;59.20;29.67;;;;;;;-1.28;100.00;98455.09;5091889;28;20192;-67
2023/02/14 06:19:42;;;;;;;57.17;27.40;;;;;;;-1.36;100.00;98454.84;5089439;28;20272;-65
2023/02/14 06:22:08;;;;;;;62.70;29.07;;;;;;;-1.38;100.00;98456.72;5091403;28;20211;-65
2023/02/14 06:24:34;;;;;;;55.67;27.37;;;;;;;-1.39;100.00;98457.63;5079605;28;20205;-64
2023/02/14 06:26:59;;;;;;;55.07;28.53;;;;;;;-1.29;100.00;98453.50;5069853;28;20209;-64
2023/02/14 06:29:25;;;;;;;63.13;29.27;;;;;;;-1.33;100.00;98452.03;5088392;28;20549;-64
2023/02/14 06:31:51;;;;;;;56.70;27.30;;;;;;;-1.29;100.00;98462.03;5087322;28;20185;-64
2023/02/14 06:34:16;;;;;;;59.00;27.43;;;;;;;-1.29;100.00;98462.03;5075555;28;20192;-65
2023/02/14 06:36:42;;;;;;;61.97;28.83;;;;;;;-1.17;100.00;98460.28;5077081;28;20216;-64
2023/02/14 06:39:07;;;;;;;57.67;27.97;;;;;;;-1.26;100.00;98466.94;5093701;28;20695;-64
2023/02/14 06:41:34;;;;;;;60.33;28.77;;;;;;;-1.24;100.00;98463.44;5095583;28;20189;-64
2023/02/14 06:43:59;;;;;;;51.50;27.37;;;;;;;-1.26;100.00;98463.53;5085617;28;20194;-64
2023/02/14 06:46:25;;;;;;;57.80;32.00;;;;;;;-1.27;100.00;98467.03;5073637;28;20217;-67
2023/02/14 06:48:50;;;;;;;59.77;28.57;;;;;;;-1.40;100.00;98467.13;5099155;28;20223;-60
2023/02/14 06:51:16;;;;;;;58.43;28.70;;;;;;;-0.99;100.00;98469.25;5096452;28;20188;-59
2023/02/14 06:53:41;;;;;;;55.90;27.73;;;;;;;-1.05;100.00;98472.25;5095394;28;20188;-61
2023/02/14 06:56:06;;;;;;;61.57;29.67;;;;;;;-0.92;100.00;98467.03;5110166;28;20242;-58
2023/02/14 06:58:32;;;;;;;57.20;27.43;;;;;;;-0.95;100.00;98475.00;5114752;28;20196;-59
2023/02/14 07:00:58;;;;;;;59.30;28.73;;;;;;;-0.82;100.00;98460.28;5095532;28;20255;-61
2023/02/14 07:03:35;;;;;;;59.57;30.00;;;;;;;-0.68;100.00;98461.84;5103710;28;20183;-59
2023/02/14 07:06:01;;;;;;;65.20;29.33;;;;;;;-0.65;100.00;98459.00;5115470;28;20207;-59
2023/02/14 07:08:27;;;;;;;58.77;29.87;;;;;;;-0.60;100.00;98462.06;5098407;28;20653;-60
2023/02/14 07:10:57;;;;;;;58.63;28.67;;;;;;;-0.46;100.00;98464.44;5114841;28;20271;-62
2023/02/14 07:13:22;;;;;;;55.37;29.20;;;;;;;-0.40;100.00;98458.81;5115379;28;20557;-58
2023/02/14 07:15:48;;;;;;;58.73;29.53;;;;;;;-0.37;100.00;98458.56;5115024;28;20208;-59
2023/02/14 07:18:13;;;;;;;60.37;29.97;;;;;;;-0.14;100.00;98455.06;5112094;28;20211;-59
2023/02/14 07:20:38;;;;;;;57.73;30.60;;;;;;;0.03;100.00;98460.66;5106983;28;20198;-59
2023/02/14 07:23:04;;;;;;;62.00;31.83;;;;;;;0.12;100.00;98457.34;5105957;28;20181;-59
2023/02/14 07:25:29;;;;;;;57.87;30.23;;;;;;;0.04;100.00;98463.13;5098237;28;20290;-58
2023/02/14 07:28:03;;;;;;;57.07;29.33;;;;;;;0.06;100.00;98463.81;5114881;28;20523;-59
2023/02/14 07:30:29;;;;;;;52.90;28.27;;;;;;;0.18;100.00;98459.44;5114680;28;20278;-59
2023/02/14 07:32:56;;;;;;;57.27;29.43;;;;;;;0.37;100.00;98463.06;5114750;28;20207;-59
2023/02/14 07:35:21;;;;;;;61.00;31.37;;;;;;;0.41;100.00;98466.19;5095202;28;20212;-60
2023/02/14 07:37:49;;;;;;;56.80;31.03;;;;;;;0.44;100.00;98460.00;5092094;28;20663;-59
2023/02/14 07:40:15;;;;;;;51.37;30.30;;;;;;;0.48;100.00;98461.38;5095297;28;20185;-59
2023/02/14 07:42:41;;;;;;;53.10;29.47;;;;;;;0.53;100.00;98457.50;5093151;28;20211;-59
2023/02/14 07:45:07;;;;;;;52.13;28.70;;;;;;;0.51;100.00;98458.53;5095326;28;20756;-59
2023/02/14 07:47:32;;;;;;;50.03;28.00;;;;;;;0.67;100.00;98459.78;5101378;28;20235;-59
2023/02/14 07:49:58;;;;;;;48.93;28.73;;;;;;;0.75;100.00;98454.84;5112679;28;20287;-58
2023/02/14 07:52:23;;;;;;;44.40;27.23;;;;;;;0.69;100.00;98457.91;5095756;28;20197;-55
2023/02/14 07:54:48;;;;;;;47.50;28.80;;;;;;;0.86;100.00;98459.13;5114220;28;20191;-58
2023/02/14 07:57:14;;;;;;;51.80;27.47;;;;;;;1.08;100.00;98459.00;5104897;28;20700;-58
2023/02/14 07:59:40;;;;;;;50.27;28.60;;;;;;;0.93;100.00;98454.28;5101961;28;20188;-60
2023/02/14 08:02:06;;;;;;;45.03;27.83;;;;;;;1.18;100.00;98457.31;5100098;28;20565;-61
2023/02/14 08:04:31;;;;;;;43.10;26.47;;;;;;;1.37;100.00;98454.03;5107663;28;20195;-59
2023/02/14 08:06:57;;;;;;;41.87;25.33;;;;;;;1.42;100.00;98459.63;5113531;28;20188;-57
2023/02/14 08:09:25;;;;;;;38.20;24.70;;;;;;;1.40;100.00;98455.53;5097787;28;20212;-60
2023/02/14 08:14:36;;;;;;;37.27;24.37;;;;;;;1.58;100.00;98447.06;5100804;28;20195;-60
2023/02/14 08:17:02;;;;;;;39.83;25.90;;;;;;;1.50;100.00;98446.91;5094224;28;20193;-59
2023/02/14 08:19:28;;;;;;;39.80;24.00;;;;;;;1.67;100.00;98441.09;5106512;28;20698;-60
2023/02/14 08:21:54;;;;;;;35.53;23.57;;;;;;;1.97;100.00;98444.63;5113085;28;20184;-60
2023/02/14 08:24:19;;;;;;;34.77;23.33;;;;;;;2.04;100.00;98448.31;5114348;28;20165;-60
2023/02/14 08:26:44;;;;;;;37.87;23.97;;;;;;;2.19;100.00;98443.59;5100231;28;20257;-59
2023/02/14 08:29:10;;;;;;;34.73;22.00;;;;;;;2.23;100.00;98448.34;5093844;28;20204;-61
2023/02/14 08:31:36;;;;;;;31.33;22.27;;;;;;;2.30;100.00;98454.63;5112898;28;20183;-59
2023/02/14 08:34:05;;;;;;;29.73;21.20;;;;;;;2.20;100.00;98448.63;5107273;28;20188;-59
2023/02/14 08:36:31;;;;;;;30.27;19.77;;;;;;;2.05;100.00;98447.38;5102575;28;20570;-59
2023/02/14 08:38:57;;;;;;;31.40;21.60;;;;;;;2.40;100.00;98449.47;5097375;28;20189;-62
2023/02/14 08:41:23;;;;;;;30.73;21.10;;;;;;;2.08;100.00;98447.91;5096459;28;20223;-59
2023/02/14 08:43:48;;;;;;;28.77;20.60;;;;;;;2.15;100.00;98443.03;5113408;28;20231;-60
2023/02/14 08:46:15;;;;;;;29.57;20.23;;;;;;;2.26;100.00;98450.69;5112839;28;20227;-58
2023/02/14 08:48:42;;;;;;;28.20;20.00;;;;;;;2.48;100.00;98452.22;5113598;27;20238;-60
2023/02/14 08:51:09;;;;;;;29.93;22.23;;;;;;;2.16;100.00;98444.69;5123646;27;20211;-58
2023/02/14 08:53:35;;;;;;;30.40;21.23;;;;;;;2.26;100.00;98445.50;5133421;27;20581;-60
2023/02/14 08:56:02;;;;;;;31.40;21.77;;;;;;;2.40;100.00;98444.28;5125383;27;20210;-60
2023/02/14 08:58:28;;;;;;;29.00;21.20;;;;;;;2.27;100.00;98438.56;5112290;27;20184;-61
2023/02/14 09:00:54;;;;;;;29.33;21.07;;;;;;;2.24;100.00;98442.22;5117661;27;20228;-60
2023/02/14 09:03:20;;;;;;;27.97;20.00;;;;;;;2.28;100.00;98442.81;5130390;27;20234;-60
2023/02/14 09:05:45;;;;;;;28.00;19.87;;;;;;;2.49;100.00;98439.16;5113357;28;20667;-60
2023/02/14 09:08:10;;;;;;;27.13;19.20;;;;;;;2.68;100.00;98446.09;5114439;27;20179;-60
2023/02/14 09:10:36;;;;;;;27.57;20.03;;;;;;;2.69;100.00;98452.09;5131744;27;20280;-60
2023/02/14 09:13:01;;;;;;;28.60;19.37;;;;;;;2.56;100.00;98446.38;5133634;27;20183;-63
2023/02/14 09:15:27;;;;;;;26.50;19.40;;;;;;;2.71;100.00;98443.25;5133246;27;20673;-61
2023/02/14 09:17:52;;;;;;;25.87;18.40;;;;;;;2.82;100.00;98434.53;5114633;28;20188;-61
2023/02/14 09:20:18;;;;;;;26.77;18.83;;;;;;;2.94;100.00;98436.00;5115643;27;20745;-61
2023/02/14 09:22:43;;;;;;;23.43;18.80;;;;;;;3.17;100.00;98428.75;5133111;27;20244;-61
2023/02/14 09:25:09;;;;;;;30.80;19.03;;;;;;;3.19;100.00;98427.66;5133581;27;20214;-58
2023/02/14 09:27:35;;;;;;;25.83;18.27;;;;;;;3.33;100.00;98424.63;5118445;27;20520;-63
2023/02/14 09:30:00;;;;;;;25.13;18.43;;;;;;;3.40;100.00;98419.69;5113307;28;20199;-61
2023/02/14 09:32:27;;;;;;;23.80;18.50;;;;;;;3.47;100.00;98422.53;5115242;28;20191;-61
2023/02/14 09:40:21;;;;;;;26.23;18.03;;;;;;;3.49;100.00;98421.44;5132928;28;20205;-65
2023/02/14 09:43:10;;;;;;;21.73;17.53;;;;;;;3.58;100.00;98417.16;5133395;27;20553;-59
2023/02/14 09:45:38;;;;;;;24.77;19.53;;;;;;;3.71;100.00;98415.91;5133427;27;20218;-63
2023/02/14 09:48:40;;;;;;;33.00;29.67;;;;;;;3.68;100.00;98421.34;5098942;28;20715;-62
2023/02/14 09:51:14;;;;;;;23.47;18.27;;;;;;;3.40;100.00;98421.47;5080708;28;20196;-60
2023/02/14 09:53:51;;;;;;;23.87;18.43;;;;;;;3.55;100.00;98414.88;5080201;28;20669;-60
2023/02/14 09:56:22;;;;;;;24.63;19.57;;;;;;;3.80;100.00;98421.16;5089037;28;20208;-63
2023/02/14 09:59:03;;;;;;;26.03;19.23;;;;;;;3.58;100.00;98407.63;5072543;28;20273;-61
2023/02/14 10:01:42;;;;;;;25.53;18.77;;;;;;;3.70;100.00;98411.66;5072230;28;20561;-60
2023/02/14 10:04:33;;;;;;;20.97;17.40;;;;;;;3.84;100.00;98420.75;5082474;28;20259;-60
2023/02/14 10:07:13;;;;;;;22.73;19.43;;;;;;;3.70;100.00;98406.47;5087706;28;20260;-59
2023/02/14 10:10:00;;;;;;;25.07;20.07;;;;;;;3.83;100.00;98418.31;5076324;28;20247;-62
2023/02/14 10:12:32;;;;;;;22.60;18.77;;;;;;;3.88;100.00;98411.72;5076224;28;20894;-61
2023/02/14 10:15:01;;;;;;;25.90;18.43;;;;;;;4.02;100.00;98410.41;5074802;28;20239;-62
2023/02/14 10:18:17;;;;;;;25.90;19.47;;;;;;;4.02;100.00;98408.63;5076253;28;20726;-60
2023/02/14 10:20:56;;;;;;;24.97;19.77;;;;;;;3.77;100.00;98414.50;5053992;28;20241;-60
2023/02/14 10:23:21;;;;;;;23.67;18.10;;;;;;;3.79;100.00;98407.38;5073520;28;20189;-58
2023/02/14 10:26:00;;;;;;;24.20;18.37;;;;;;;4.02;100.00;98402.63;5085889;28;20213;-62
2023/02/14 10:28:36;;;;;;;21.70;17.80;;;;;;;4.14;100.00;98402.28;5095491;28;20764;-61
2023/02/14 10:31:18;;;;;;;23.80;18.90;;;;;;;4.20;100.00;98393.09;5095688;28;20196;-60
2023/02/14 10:33:53;;;;;;;20.90;16.93;;;;;;;4.13;100.00;98386.84;5095354;28;20188;-62
2023/02/14 10:36:22;;;;;;;24.03;20.77;;;;;;;4.32;100.00;98399.72;5093676;28;20286;-59
2023/02/14 10:39:02;;;;;;;20.50;16.13;;;;;;;4.32;100.00;98397.13;5091891;28;20280;-60
2023/02/14 10:41:48;;;;;;;21.43;16.60;;;;;;;4.33;100.00;98385.78;5075608;28;20598;-64
2023/02/14 10:44:25;;;;;;;21.83;17.00;;;;;;;4.49;100.00;98385.94;5075469;28;20546;-62
2023/02/14 10:47:00;;;;;;;20.73;16.20;;;;;;;4.48;100.00;98375.69;5096225;28;20269;-60
2023/02/14 10:49:32;;;;;;;19.57;16.07;;;;;;;4.68;99.22;98386.75;5084633;28;20204;-60
2023/02/14 10:52:16;;;;;;;19.27;15.67;;;;;;;4.67;100.00;98383.34;5115721;28;20174;-60
2023/02/14 10:54:49;;;;;;;21.70;16.63;;;;;;;4.73;100.00;98377.53;5110158;28;20640;-60
2023/02/14 10:57:23;;;;;;;22.93;16.63;;;;;;;4.88;99.10;98377.81;5115624;28;20248;-59
2023/02/14 11:00:01;;;;;;;19.87;15.97;;;;;;;4.97;96.70;98369.91;5115558;28;20739;-60
2023/02/14 11:02:32;;;;;;;20.37;16.60;;;;;;;5.03;98.51;98369.31;5115025;28;20184;-60
2023/02/14 11:04:59;;;;;;;20.30;15.70;;;;;;;5.11;98.27;98367.72;5104350;28;20680;-59
2023/02/14 11:07:25;;;;;;;19.07;15.67;;;;;;;5.19;98.75;98370.38;5115282;28;20172;-60
2023/02/14 11:09:50;;;;;;;18.43;15.57;;;;;;;5.17;97.06;98364.53;5095683;28;20234;-59
2023/02/14 11:12:33;;;;;;;19.27;16.27;;;;;;;5.30;96.79;98362.31;5095228;28;20180;-58
2023/02/14 11:15:30;;;;;;;17.80;15.10;;;;;;;5.20;97.11;98357.22;5096017;28;20691;-58
2023/02/14 11:18:38;;;;;;;19.83;16.10;;;;;;;5.52;94.63;98347.97;5079768;28;20195;-58
2023/02/14 11:21:06;;;;;;;20.60;16.00;;;;;;;5.31;96.70;98343.16;5055213;28;20241;-59
2023/02/14 11:23:41;;;;;;;22.10;17.00;;;;;;;5.38;97.14;98337.19;5115179;28;20180;-59
2023/02/14 11:26:13;;;;;;;17.70;14.47;;;;;;;5.48;97.19;98344.84;5111205;28;20229;-59
2023/02/14 11:28:53;;;;;;;17.17;15.07;;;;;;;5.65;95.79;98343.13;5114688;28;20266;-60
2023/02/14 11:31:33;;;;;;;21.13;16.10;;;;;;;5.81;94.54;98338.81;5095024;28;20300;-61
2023/02/14 11:34:00;;;;;;;18.23;14.80;;;;;;;5.79;94.42;98340.78;5095400;28;20187;-61
2023/02/14 11:36:26;;;;;;;17.50;15.13;;;;;;;6.08;92.31;98340.38;5114198;28;20567;-58
2023/02/14 11:39:26;;;;;;;17.60;14.77;;;;;;;6.10;92.47;98324.59;5113942;28;20200;-60
2023/02/14 11:41:57;;;;;;;17.47;14.17;;;;;;;6.12;93.12;98330.47;5099190;28;20660;-61
2023/02/14 11:44:26;;;;;;;19.20;16.87;;;;;;;6.00;92.31;98319.53;5102288;28;20180;-59
2023/02/14 11:46:54;;;;;;;18.10;16.17;;;;;;;6.30;91.42;98320.72;5093568;28;20229;-61
2023/02/14 11:49:32;;;;;;;19.60;16.30;;;;;;;6.19;90.42;98319.22;5103171;28;20223;-60